createdAt,value
2018-08-19T00:02:10.402Z,95212.92
2018-08-19T00:04:39.634Z,95210.61
2018-08-19T00:07:08.690Z,95213.66
2018-08-19T00:09:37.752Z,95209.57
2018-08-19T00:12:07.295Z,95206.63
2018-08-19T00:14:36.910Z,95206.44
2018-08-19T00:17:06.195Z,95213.17
2018-08-19T00:19:35.923Z,95211.68
2018-08-19T00:22:05.004Z,95216.34
2018-08-19T00:24:34.044Z,95217.38
2018-08-19T00:27:03.261Z,95210.06
2018-08-19T00:29:37.010Z,95209.99
2018-08-19T00:32:06.654Z,95214.95
2018-08-19T00:34:36.142Z,95211.81
2018-08-19T00:37:06.327Z,95208.92
2018-08-19T00:39:35.904Z,95205.16
2018-08-19T00:42:06.372Z,95207.31
2018-08-19T00:44:35.678Z,95206.80
2018-08-19T00:47:05.051Z,95200.88
2018-08-19T00:49:34.098Z,95202.02
2018-08-19T00:52:03.629Z,95205.18
2018-08-19T00:54:33.318Z,95201.25
2018-08-19T00:57:03.597Z,95199.77
2018-08-19T00:59:33.288Z,95201.66
2018-08-19T01:02:02.607Z,95204.56
2018-08-19T01:04:31.688Z,95206.67
2018-08-19T01:07:01.795Z,95206.44
2018-08-19T01:09:32.135Z,95206.81
2018-08-19T01:12:01.347Z,95205.83
2018-08-19T01:14:30.278Z,95202.20
2018-08-19T01:16:59.403Z,95200.84
2018-08-19T01:19:29.072Z,95198.73
2018-08-19T01:21:58.159Z,95201.66
2018-08-19T01:24:27.458Z,95199.28
2018-08-19T01:26:56.455Z,95191.06
2018-08-19T01:29:34.722Z,95193.21
2018-08-19T01:32:09.887Z,95199.68
2018-08-19T01:34:39.607Z,95199.82
2018-08-19T01:37:09.222Z,95196.55
2018-08-19T01:39:38.612Z,95197.81
2018-08-19T01:42:08.349Z,95206.65
2018-08-19T01:44:37.250Z,95199.95
2018-08-19T01:47:06.149Z,95204.70
2018-08-19T01:49:35.615Z,95195.50
2018-08-19T01:52:05.675Z,95194.63
2018-08-19T01:54:34.763Z,95202.98
2018-08-19T01:57:03.899Z,95204.05
2018-08-19T01:59:34.319Z,95203.30
2018-08-19T02:02:04.627Z,95207.78
2018-08-19T02:04:35.427Z,95207.82
2018-08-19T02:07:04.439Z,95207.05
2018-08-19T02:09:34.166Z,95210.86
2018-08-19T02:12:03.269Z,95209.84
2018-08-19T02:14:32.247Z,95207.56
2018-08-19T02:17:02.217Z,95208.22
2018-08-19T02:19:31.330Z,95214.14
2018-08-19T02:22:00.428Z,95217.81
2018-08-19T02:24:29.939Z,95209.84
2018-08-19T02:26:59.035Z,95215.39
2018-08-19T02:29:35.111Z,95212.22
2018-08-19T02:32:05.479Z,95208.67
2018-08-19T02:34:36.359Z,95217.38
2018-08-19T02:37:10.751Z,95208.81
2018-08-19T02:39:41.726Z,95211.23
2018-08-19T02:42:26.229Z,95216.53
2018-08-19T02:45:01.670Z,95216.30
2018-08-19T02:47:31.263Z,95215.80
2018-08-19T02:50:00.244Z,95222.64
2018-08-19T02:52:31.645Z,95221.75
2018-08-19T02:55:02.079Z,95217.21
2018-08-19T02:57:31.908Z,95222.00
2018-08-19T03:00:01.730Z,95220.52
2018-08-19T03:02:34.446Z,95221.14
2018-08-19T03:05:05.930Z,95221.14
2018-08-19T03:07:37.068Z,95221.13
2018-08-19T03:10:09.139Z,95224.89
2018-08-19T03:12:38.542Z,95222.61
2018-08-19T03:15:10.716Z,95218.45
2018-08-19T03:17:40.519Z,95229.20
2018-08-19T03:20:11.776Z,95233.26
2018-08-19T03:22:40.830Z,95229.95
2018-08-19T03:25:10.387Z,95228.45
2018-08-19T03:27:40.407Z,95234.64
2018-08-19T03:30:14.302Z,95233.12
2018-08-19T03:32:49.160Z,95231.63
2018-08-19T03:35:19.430Z,95238.55
2018-08-19T03:37:51.277Z,95246.00
2018-08-19T03:40:20.404Z,95245.77
2018-08-19T03:42:49.456Z,95250.92
2018-08-19T03:45:20.323Z,95247.64
2018-08-19T03:47:50.527Z,95252.19
2018-08-19T03:50:22.822Z,95254.34
2018-08-19T03:52:53.292Z,95251.41
2018-08-19T03:55:30.450Z,95247.11
2018-08-19T03:58:04.578Z,95251.30
2018-08-19T04:00:35.307Z,95258.99
2018-08-19T04:03:13.443Z,95263.94
2018-08-19T04:05:46.437Z,95255.30
2018-08-19T04:08:16.034Z,95261.81
2018-08-19T04:10:46.186Z,95257.83
2018-08-19T04:13:36.111Z,95260.25
2018-08-19T04:16:05.927Z,95254.95
2018-08-19T04:18:39.271Z,95258.72
2018-08-19T04:21:09.628Z,95260.58
2018-08-19T04:23:41.377Z,95268.19
2018-08-19T04:26:10.306Z,95266.94
2018-08-19T04:28:40.538Z,95272.35
2018-08-19T04:31:15.020Z,95268.06
2018-08-19T04:33:45.556Z,95274.33
2018-08-19T04:36:16.396Z,95267.91
2018-08-19T04:38:45.652Z,95265.91
2018-08-19T04:41:14.835Z,95263.67
2018-08-19T04:43:44.866Z,95267.34
2018-08-19T04:46:13.984Z,95266.36
2018-08-19T04:48:45.057Z,95263.18
2018-08-19T04:51:14.409Z,95263.67
2018-08-19T04:53:43.666Z,95264.77
2018-08-19T04:56:13.071Z,95261.76
2018-08-19T04:58:42.206Z,95274.75
2018-08-19T05:01:12.804Z,95275.03
2018-08-19T05:03:45.166Z,95275.27
2018-08-19T05:06:14.124Z,95274.71
2018-08-19T05:08:43.758Z,95277.69
2018-08-19T05:11:12.983Z,95274.72
2018-08-19T05:13:42.578Z,95279.59
2018-08-19T05:16:12.030Z,95272.89
2018-08-19T05:18:44.703Z,95273.14
2018-08-19T05:21:14.410Z,95269.59
2018-08-19T05:23:43.271Z,95270.64
2018-08-19T05:26:13.427Z,95273.22
2018-08-19T05:28:45.457Z,95274.20
2018-08-19T05:31:14.652Z,95271.44
2018-08-19T05:33:44.056Z,95277.18
2018-08-19T05:36:13.685Z,95271.80
2018-08-19T05:38:43.836Z,95270.38
2018-08-19T05:41:12.785Z,95267.08
2018-08-19T05:43:41.562Z,95271.03
2018-08-19T05:46:10.623Z,95269.23
2018-08-19T05:48:39.551Z,95267.59
2018-08-19T05:51:08.854Z,95272.66
2018-08-19T05:53:42.010Z,95281.70
2018-08-19T05:56:10.827Z,95278.36
2018-08-19T05:58:42.059Z,95275.73
2018-08-19T06:01:12.426Z,95273.50
2018-08-19T06:03:41.265Z,95278.89
2018-08-19T06:06:10.121Z,95272.94
2018-08-19T06:08:39.083Z,95271.86
2018-08-19T06:11:07.843Z,95280.97
2018-08-19T06:13:36.712Z,95280.23
2018-08-19T06:16:06.339Z,95274.30
2018-08-19T06:18:35.893Z,95278.14
2018-08-19T06:21:05.586Z,95280.40
2018-08-19T06:23:35.017Z,95285.45
2018-08-19T06:26:03.954Z,95285.13
2018-08-19T06:28:33.540Z,95286.02
2018-08-19T06:31:03.031Z,95286.59
2018-08-19T06:33:32.469Z,95285.11
2018-08-19T06:36:01.455Z,95282.86
2018-08-19T06:38:30.855Z,95286.34
2018-08-19T06:40:59.902Z,95285.67
2018-08-19T06:43:28.732Z,95287.03
2018-08-19T06:45:57.519Z,95278.05
2018-08-19T06:48:27.139Z,95276.30
2018-08-19T06:50:56.180Z,95286.52
2018-08-19T06:53:30.646Z,95282.44
2018-08-19T06:56:00.291Z,95273.64
2018-08-19T06:58:29.485Z,95272.16
2018-08-19T07:00:58.223Z,95270.77
2018-08-19T07:03:27.394Z,95273.29
2018-08-19T07:06:11.829Z,95271.20
2018-08-19T07:08:41.498Z,95272.35
2018-08-19T07:11:10.415Z,95277.41
2018-08-19T07:13:39.935Z,95281.05
2018-08-19T07:16:09.118Z,95281.34
2018-08-19T07:18:37.944Z,95276.92
2018-08-19T07:21:07.007Z,95280.09
2018-08-19T07:23:36.195Z,95272.84
2018-08-19T07:26:05.284Z,95267.52
2018-08-19T07:28:34.416Z,95269.70
2018-08-19T07:31:03.085Z,95268.66
2018-08-19T07:33:32.275Z,95269.45
2018-08-19T07:36:01.106Z,95269.23
2018-08-19T07:38:30.255Z,95279.62
2018-08-19T07:40:59.284Z,95275.91
2018-08-19T07:43:28.690Z,95271.33
2018-08-19T07:45:57.559Z,95273.94
2018-08-19T07:48:27.277Z,95269.34
2018-08-19T07:50:56.412Z,95274.53
2018-08-19T07:53:25.293Z,95274.72
2018-08-19T07:55:54.455Z,95274.19
2018-08-19T07:58:34.424Z,95273.59
2018-08-19T08:01:03.302Z,95266.99
2018-08-19T08:03:32.208Z,95267.57
2018-08-19T08:06:01.519Z,95270.26
2018-08-19T08:08:31.121Z,95268.73
2018-08-19T08:11:00.036Z,95272.41
2018-08-19T08:13:29.240Z,95267.81
2018-08-19T08:15:58.805Z,95263.78
2018-08-19T08:18:27.803Z,95266.42
2018-08-19T08:21:02.132Z,95258.56
2018-08-19T08:23:31.122Z,95264.11
2018-08-19T08:25:59.868Z,95262.80
2018-08-19T08:28:29.191Z,95264.76
2018-08-19T08:30:58.188Z,95252.09
2018-08-19T08:33:27.188Z,95253.56
2018-08-19T08:35:57.134Z,95257.97
2018-08-19T08:38:25.982Z,95251.87
2018-08-19T08:40:55.189Z,95249.25
2018-08-19T08:43:24.443Z,95252.55
2018-08-19T08:45:55.763Z,95253.34
2018-08-19T08:48:25.585Z,95253.37
2018-08-19T08:50:54.451Z,95250.77
2018-08-19T08:53:26.755Z,95251.71
2018-08-19T08:55:55.831Z,95250.28
2018-08-19T08:58:24.825Z,95255.64
2018-08-19T09:00:54.083Z,95251.37
2018-08-19T09:03:23.403Z,95242.48
2018-08-19T09:05:52.304Z,95244.13
2018-08-19T09:08:21.215Z,95240.30
2018-08-19T09:10:50.010Z,95241.05
2018-08-19T09:13:19.100Z,95237.72
2018-08-19T09:15:48.558Z,95243.02
2018-08-19T09:18:17.559Z,95241.98
2018-08-19T09:20:46.716Z,95249.53
2018-08-19T09:23:16.685Z,95240.41
2018-08-19T09:25:45.752Z,95233.83
2018-08-19T09:28:14.811Z,95240.28
2018-08-19T09:30:44.836Z,95228.23
2018-08-19T09:33:14.364Z,95232.34
2018-08-19T09:35:43.959Z,95235.28
2018-08-19T09:38:19.307Z,95233.78
2018-08-19T09:40:48.386Z,95223.70
2018-08-19T09:43:17.887Z,95231.61
2018-08-19T09:45:47.310Z,95228.20
2018-08-19T09:48:16.628Z,95235.80
2018-08-19T09:50:45.819Z,95223.71
2018-08-19T09:53:15.257Z,95228.63
2018-08-19T09:55:45.423Z,95219.18
2018-08-19T09:58:20.811Z,95215.16
2018-08-19T10:00:55.185Z,95210.77
2018-08-19T10:03:24.271Z,95207.61
2018-08-19T10:05:53.631Z,95210.01
2018-08-19T10:08:23.278Z,95213.11
2018-08-19T10:10:52.762Z,95202.50
2018-08-19T10:13:21.758Z,95198.98
2018-08-19T10:15:50.687Z,95198.88
2018-08-19T10:18:19.715Z,95204.27
2018-08-19T10:20:48.678Z,95195.20
2018-08-19T10:23:17.547Z,95196.03
2018-08-19T10:25:46.890Z,95194.48
2018-08-19T10:28:18.664Z,95194.33
2018-08-19T10:30:55.774Z,95198.89
2018-08-19T10:33:24.598Z,95193.02
2018-08-19T10:35:53.339Z,95191.64
2018-08-19T10:38:22.220Z,95191.87
2018-08-19T10:40:56.394Z,95190.84
2018-08-19T10:43:26.101Z,95195.12
2018-08-19T10:45:55.687Z,95189.44
2018-08-19T10:48:24.931Z,95173.38
2018-08-19T10:50:53.851Z,95195.08
2018-08-19T10:53:28.382Z,95179.50
2018-08-19T10:56:01.060Z,95178.79
2018-08-19T10:58:30.035Z,95174.14
2018-08-19T11:00:59.417Z,95171.84
2018-08-19T11:03:29.108Z,95166.36
2018-08-19T11:05:58.018Z,95166.61
2018-08-19T11:08:26.987Z,95160.59
2018-08-19T11:10:56.969Z,95165.58
2018-08-19T11:13:26.375Z,95163.16
2018-08-19T11:15:57.407Z,95158.34
2018-08-19T11:18:29.286Z,95159.71
2018-08-19T11:21:02.285Z,95163.17
2018-08-19T11:23:31.048Z,95150.24
2018-08-19T11:26:00.037Z,95148.11
2018-08-19T11:28:40.107Z,95140.06
2018-08-19T11:31:16.452Z,95143.52
2018-08-19T11:33:46.414Z,95144.38
2018-08-19T11:36:16.090Z,95138.16
2018-08-19T11:38:48.684Z,95128.95
2018-08-19T11:41:17.715Z,95125.00
2018-08-19T11:43:48.289Z,95123.50
2018-08-19T11:46:17.164Z,95123.45
2018-08-19T11:48:46.479Z,95123.20
2018-08-19T11:51:15.620Z,95126.49
2018-08-19T11:53:44.695Z,95125.45
2018-08-19T11:56:13.772Z,95120.98
2018-08-19T11:58:47.098Z,95114.39
2018-08-19T12:01:18.036Z,95119.37
2018-08-19T12:04:12.390Z,95112.70
2018-08-19T12:06:41.581Z,95114.09
2018-08-19T12:09:11.363Z,95113.59
2018-08-19T12:11:41.948Z,95100.81
2018-08-19T12:14:13.466Z,95092.48
2018-08-19T12:16:49.912Z,95096.48
2018-08-19T12:19:20.601Z,95095.55
2018-08-19T12:21:58.599Z,95087.48
2018-08-19T12:24:33.604Z,95085.80
2018-08-19T12:27:04.791Z,95082.98
2018-08-19T12:29:34.762Z,95084.73
2018-08-19T12:32:37.683Z,95094.14
2018-08-19T12:35:06.668Z,95079.92
2018-08-19T12:37:35.799Z,95078.92
2018-08-19T12:40:05.813Z,95083.14
2018-08-19T12:42:44.458Z,95080.04
2018-08-19T12:45:13.716Z,95078.66
2018-08-19T12:47:42.875Z,95066.64
2018-08-19T12:50:16.079Z,95079.41
2018-08-19T12:52:45.101Z,95076.70
2018-08-19T12:55:16.634Z,95058.77
2018-08-19T12:57:46.228Z,95067.73
2018-08-19T13:00:31.725Z,95078.56
2018-08-19T13:03:01.693Z,95078.30
2018-08-19T13:05:30.527Z,95077.69
2018-08-19T13:08:00.354Z,95100.09
2018-08-19T13:10:36.918Z,95085.31
2018-08-19T13:13:06.930Z,95094.34
2018-08-19T13:15:35.922Z,95093.98
2018-08-19T13:18:04.957Z,95089.98
2018-08-19T13:20:34.125Z,95088.66
2018-08-19T13:23:04.489Z,95087.80
2018-08-19T13:25:34.462Z,95104.43
2018-08-19T13:28:03.358Z,95107.77
2018-08-19T13:30:32.218Z,95125.56
2018-08-19T13:33:01.499Z,95133.27
2018-08-19T13:35:31.050Z,95135.28
2018-08-19T13:37:59.946Z,95124.00
2018-08-19T13:40:29.103Z,95120.86
2018-08-19T13:42:58.222Z,95112.27
2018-08-19T13:45:27.442Z,95101.88
2018-08-19T13:47:57.578Z,95101.78
2018-08-19T13:50:26.576Z,95092.97
2018-08-19T13:52:55.566Z,95099.14
2018-08-19T13:55:24.265Z,95093.98
2018-08-19T13:57:53.415Z,95086.27
2018-08-19T14:00:23.966Z,95088.55
2018-08-19T14:02:53.123Z,95089.99
2018-08-19T14:05:22.394Z,95085.73
2018-08-19T14:07:52.613Z,95082.59
2018-08-19T14:10:21.539Z,95082.03
2018-08-19T14:12:51.208Z,95080.92
2018-08-19T14:15:20.304Z,95078.17
2018-08-19T14:17:50.042Z,95073.70
2018-08-19T14:20:19.115Z,95066.47
2018-08-19T14:22:48.387Z,95073.87
2018-08-19T14:25:17.418Z,95072.53
2018-08-19T14:27:47.114Z,95072.52
2018-08-19T14:30:16.123Z,95070.63
2018-08-19T14:32:46.846Z,95062.81
2018-08-19T14:35:16.787Z,95067.30
2018-08-19T14:37:45.474Z,95067.15
2018-08-19T14:40:16.777Z,95064.43
2018-08-19T14:42:46.393Z,95060.20
2018-08-19T14:45:15.530Z,95054.02
2018-08-19T14:47:45.209Z,95054.47
2018-08-19T14:50:16.208Z,95046.58
2018-08-19T14:52:45.299Z,95053.87
2018-08-19T14:55:14.251Z,95046.58
2018-08-19T14:57:43.131Z,95047.79
2018-08-19T15:00:14.106Z,95053.13
2018-08-19T15:02:43.294Z,95039.36
2018-08-19T15:05:16.287Z,95044.73
2018-08-19T15:07:45.826Z,95042.38
2018-08-19T15:10:17.976Z,95031.61
2018-08-19T15:12:47.950Z,95040.83
2018-08-19T15:15:17.058Z,95034.73
2018-08-19T15:18:02.092Z,95032.69
2018-08-19T15:20:33.136Z,95031.72
2018-08-19T15:23:16.827Z,95036.76
2018-08-19T15:25:46.231Z,95028.46
2018-08-19T15:28:15.694Z,95028.80
2018-08-19T15:30:44.635Z,95026.98
2018-08-19T15:33:14.710Z,95039.58
2018-08-19T15:35:44.034Z,95033.98
2018-08-19T15:38:14.271Z,95032.32
2018-08-19T15:40:45.005Z,95025.69
2018-08-19T15:43:14.376Z,95030.27
2018-08-19T15:45:44.523Z,95028.95
2018-08-19T15:48:13.597Z,95030.25
2018-08-19T15:50:42.610Z,95029.41
2018-08-19T15:53:12.112Z,95028.30
2018-08-19T15:55:41.112Z,95027.84
2018-08-19T15:58:10.383Z,95027.17
2018-08-19T16:00:41.180Z,95026.19
2018-08-19T16:03:11.167Z,95027.03
2018-08-19T16:05:40.057Z,95026.84
2018-08-19T16:08:09.302Z,95030.19
2018-08-19T16:10:38.163Z,95033.89
2018-08-19T16:13:09.253Z,95033.89
2018-08-19T16:15:39.398Z,95034.49
2018-08-19T16:18:08.762Z,95038.72
2018-08-19T16:20:37.890Z,95037.50
2018-08-19T16:23:06.957Z,95039.73
2018-08-19T16:25:36.088Z,95043.36
2018-08-19T16:28:05.831Z,95044.77
2018-08-19T16:30:34.742Z,95048.19
2018-08-19T16:33:03.667Z,95053.30
2018-08-19T16:35:32.706Z,95046.37
2018-08-19T16:38:02.143Z,95053.71
2018-08-19T16:40:31.320Z,95061.02
2018-08-19T16:43:00.218Z,95072.57
2018-08-19T16:45:29.757Z,95054.13
2018-08-19T16:47:58.906Z,95064.41
2018-08-19T16:50:27.874Z,95069.80
2018-08-19T16:52:57.114Z,95070.45
2018-08-19T16:55:25.848Z,95072.90
2018-08-19T16:57:54.981Z,95069.72
2018-08-19T17:00:24.207Z,95069.56
2018-08-19T17:02:53.320Z,95069.95
2018-08-19T17:05:31.567Z,95078.82
2018-08-19T17:08:00.763Z,95077.14
2018-08-19T17:10:30.243Z,95077.15
2018-08-19T17:13:00.254Z,95078.83
2018-08-19T17:15:30.064Z,95074.63
2018-08-19T17:17:59.723Z,95080.07
2018-08-19T17:20:29.730Z,95079.80
2018-08-19T17:22:58.557Z,95081.20
2018-08-19T17:25:27.866Z,95077.73
2018-08-19T17:27:57.147Z,95077.05
2018-08-19T17:30:26.141Z,95086.53
2018-08-19T17:33:00.577Z,95082.20
2018-08-19T17:35:30.218Z,95083.95
2018-08-19T17:38:00.303Z,95087.77
2018-08-19T17:40:30.623Z,95087.94
2018-08-19T17:42:59.852Z,95086.72
2018-08-19T17:45:28.751Z,95089.69
2018-08-19T17:47:57.754Z,95094.27
2018-08-19T17:50:27.919Z,95093.05
2018-08-19T17:52:59.172Z,95092.73
2018-08-19T17:55:28.268Z,95090.22
2018-08-19T17:57:58.590Z,95096.92
2018-08-19T18:00:27.780Z,95096.85
2018-08-19T18:02:56.686Z,95101.06
2018-08-19T18:05:25.536Z,95095.81
2018-08-19T18:07:55.496Z,95108.23
2018-08-19T18:10:24.907Z,95100.67
2018-08-19T18:12:54.097Z,95098.30
2018-08-19T18:15:23.428Z,95104.57
2018-08-19T18:17:58.463Z,95105.80
2018-08-19T18:20:30.436Z,95103.81
2018-08-19T18:23:00.430Z,95105.50
2018-08-19T18:25:29.591Z,95103.89
2018-08-19T18:27:58.723Z,95103.57
2018-08-19T18:30:28.545Z,95108.54
2018-08-19T18:32:57.327Z,95114.12
2018-08-19T18:35:26.622Z,95113.08
2018-08-19T18:37:55.566Z,95111.92
2018-08-19T18:40:31.315Z,95105.73
2018-08-19T18:43:00.923Z,95103.42
2018-08-19T18:45:30.147Z,95106.54
2018-08-19T18:48:03.838Z,95110.81
2018-08-19T18:50:32.937Z,95114.80
2018-08-19T18:53:02.166Z,95118.77
2018-08-19T18:55:31.123Z,95116.20
2018-08-19T18:58:00.787Z,95117.42
2018-08-19T19:00:30.099Z,95108.81
2018-08-19T19:03:00.666Z,95112.05
2018-08-19T19:05:39.751Z,95110.70
2018-08-19T19:08:11.444Z,95100.87
2018-08-19T19:10:43.944Z,95119.16
2018-08-19T19:13:13.375Z,95112.34
2018-08-19T19:15:42.391Z,95114.26
2018-08-19T19:18:13.398Z,95108.59
2018-08-19T19:20:49.584Z,95113.50
2018-08-19T19:23:21.914Z,95110.30
2018-08-19T19:25:51.804Z,95107.70
2018-08-19T19:28:20.854Z,95112.09
2018-08-19T19:30:53.893Z,95112.34
2018-08-19T19:33:24.294Z,95108.81
2018-08-19T19:35:53.102Z,95113.66
2018-08-19T19:38:22.631Z,95117.11
2018-08-19T19:40:52.052Z,95113.19
2018-08-19T19:43:22.731Z,95108.27
2018-08-19T19:45:53.782Z,95110.66
2018-08-19T19:48:22.970Z,95112.80
2018-08-19T19:50:51.970Z,95106.23
2018-08-19T19:53:20.998Z,95104.12
2018-08-19T19:55:50.462Z,95103.41
2018-08-19T19:58:20.515Z,95106.03
2018-08-19T20:00:55.144Z,95109.48
2018-08-19T20:03:24.832Z,95104.56
2018-08-19T20:05:53.919Z,95106.60
2018-08-19T20:08:25.928Z,95104.93
2018-08-19T20:10:54.770Z,95107.00
2018-08-19T20:13:23.671Z,95105.94
2018-08-19T20:15:52.759Z,95102.38
2018-08-19T20:18:22.586Z,95099.91
2018-08-19T20:20:53.299Z,95108.98
2018-08-19T20:23:26.048Z,95107.92
2018-08-19T20:25:55.967Z,95112.34
2018-08-19T20:28:24.974Z,95106.20
2018-08-19T20:30:53.693Z,95108.16
2018-08-19T20:33:29.583Z,95109.02
2018-08-19T20:35:58.555Z,95105.58
2018-08-19T20:38:27.446Z,95107.30
2018-08-19T20:40:56.909Z,95100.42
2018-08-19T20:43:26.851Z,95114.92
2018-08-19T20:45:56.266Z,95119.86
2018-08-19T20:48:25.178Z,95126.86
2018-08-19T20:50:54.052Z,95131.28
2018-08-19T20:53:23.131Z,95128.36
2018-08-19T20:55:52.167Z,95132.45
2018-08-19T20:58:21.974Z,95132.78
2018-08-19T21:00:50.727Z,95134.82
2018-08-19T21:03:19.869Z,95122.98
2018-08-19T21:05:48.822Z,95130.19
2018-08-19T21:08:18.957Z,95129.71
2018-08-19T21:10:48.664Z,95127.98
2018-08-19T21:13:19.444Z,95124.84
2018-08-19T21:15:53.427Z,95122.71
2018-08-19T21:18:22.802Z,95123.16
2018-08-19T21:20:53.438Z,95128.12
2018-08-19T21:23:22.371Z,95134.36
2018-08-19T21:25:56.296Z,95125.53
2018-08-19T21:28:25.245Z,95121.67
2018-08-19T21:30:54.525Z,95126.20
2018-08-19T21:33:23.719Z,95132.45
2018-08-19T21:35:54.743Z,95127.94
2018-08-19T21:38:23.681Z,95122.12
2018-08-19T21:40:57.102Z,95121.25
2018-08-19T21:43:28.207Z,95125.56
2018-08-19T21:45:57.821Z,95122.77
2018-08-19T21:48:26.727Z,95125.56
2018-08-19T21:50:55.926Z,95118.37
2018-08-19T21:53:24.724Z,95122.78
2018-08-19T21:55:54.182Z,95126.35
2018-08-19T21:58:23.289Z,95122.56
2018-08-19T22:00:58.898Z,95122.45
2018-08-19T22:03:33.122Z,95119.34
2018-08-19T22:06:06.383Z,95119.19
2018-08-19T22:08:35.353Z,95107.53
2018-08-19T22:11:04.439Z,95112.36
2018-08-19T22:13:33.502Z,95119.22
2018-08-19T22:16:03.065Z,95123.07
2018-08-19T22:18:32.474Z,95118.11
2018-08-19T22:21:10.964Z,95120.52
2018-08-19T22:23:43.370Z,95115.41
2018-08-19T22:26:14.620Z,95114.55
2018-08-19T22:28:44.523Z,95106.33
2018-08-19T22:31:24.575Z,95101.03
2018-08-19T22:33:55.589Z,95098.27
2018-08-19T22:36:25.290Z,95090.38
2018-08-19T22:38:54.878Z,95094.56
2018-08-19T22:41:25.254Z,95094.08
2018-08-19T22:43:55.657Z,95094.20
2018-08-19T22:46:25.018Z,95091.93
2018-08-19T22:48:55.138Z,95096.54
2018-08-19T22:51:24.665Z,95095.84
2018-08-19T22:53:55.660Z,95096.44
2018-08-19T22:56:24.365Z,95092.94
2018-08-19T22:58:53.499Z,95088.46
2018-08-19T23:01:27.137Z,95094.67
2018-08-19T23:04:01.646Z,95095.19
2018-08-19T23:06:31.382Z,95099.84
2018-08-19T23:09:00.883Z,95096.38
2018-08-19T23:11:35.787Z,95101.66
2018-08-19T23:14:16.167Z,95104.78
2018-08-19T23:16:45.221Z,95102.80
2018-08-19T23:19:13.866Z,95097.03
2018-08-19T23:21:42.771Z,95090.61
2018-08-19T23:24:11.906Z,95091.36
2018-08-19T23:26:41.075Z,95095.30
2018-08-19T23:29:10.154Z,95093.69
2018-08-19T23:31:39.116Z,95092.05
2018-08-19T23:34:08.228Z,95094.28
2018-08-19T23:36:36.926Z,95095.59
2018-08-19T23:39:08.015Z,95088.82
2018-08-19T23:41:37.183Z,95079.11
2018-08-19T23:44:06.291Z,95081.73
2018-08-19T23:46:35.307Z,95084.73
2018-08-19T23:49:04.399Z,95087.14
2018-08-19T23:51:33.683Z,95082.02
2018-08-19T23:54:03.887Z,95090.89
2018-08-19T23:56:33.182Z,95085.77
2018-08-19T23:59:02.582Z,95081.50
